createdAt,value
2019-03-20T00:00:22.781Z,0.00
2019-03-20T00:01:23.165Z,0.00
2019-03-20T00:02:22.895Z,0.00
2019-03-20T00:03:23.145Z,0.00
2019-03-20T00:04:22.969Z,0.00
2019-03-20T00:05:22.986Z,0.00
2019-03-20T00:06:23.117Z,0.00
2019-03-20T00:07:22.998Z,0.00
2019-03-20T00:08:23.335Z,0.00
2019-03-20T00:09:23.054Z,0.00
2019-03-20T00:10:23.137Z,0.00
2019-03-20T00:11:23.119Z,0.00
2019-03-20T00:12:23.299Z,0.00
2019-03-20T00:13:23.228Z,0.00
2019-03-20T00:14:23.205Z,0.00
2019-03-20T00:15:23.534Z,0.00
2019-03-20T00:16:23.325Z,0.00
2019-03-20T00:17:23.352Z,0.00
2019-03-20T00:18:23.331Z,0.00
2019-03-20T00:19:23.367Z,0.00
2019-03-20T00:20:23.445Z,0.00
2019-03-20T00:21:23.523Z,0.00
2019-03-20T00:22:24.098Z,0.00
2019-03-20T00:23:23.479Z,0.00
2019-03-20T00:24:23.662Z,0.00
2019-03-20T00:25:23.587Z,0.00
2019-03-20T00:26:23.571Z,0.00
2019-03-20T00:27:23.600Z,0.00
2019-03-20T00:28:23.683Z,0.00
2019-03-20T00:29:24.018Z,0.00
2019-03-20T00:30:23.738Z,0.00
2019-03-20T00:31:23.774Z,0.00
2019-03-20T00:32:23.753Z,0.00
2019-03-20T00:33:23.828Z,0.00
2019-03-20T00:34:23.812Z,0.00
2019-03-20T00:35:23.893Z,0.00
2019-03-20T00:36:24.335Z,0.00
2019-03-20T00:37:23.966Z,0.00
2019-03-20T00:38:24.187Z,0.00
2019-03-20T00:39:24.180Z,0.00
2019-03-20T00:40:24.121Z,0.00
2019-03-20T00:41:24.123Z,0.00
2019-03-20T00:42:24.052Z,0.00
2019-03-20T00:43:24.436Z,0.00
2019-03-20T00:44:24.168Z,0.00
2019-03-20T00:45:24.191Z,0.00
2019-03-20T00:46:24.175Z,0.00
2019-03-20T00:47:24.201Z,0.00
2019-03-20T00:48:24.430Z,0.00
2019-03-20T00:49:24.266Z,0.00
2019-03-20T00:50:24.593Z,0.00
2019-03-20T00:51:24.477Z,0.00
2019-03-20T00:52:24.403Z,0.00
2019-03-20T00:53:24.384Z,0.00
2019-03-20T00:54:24.413Z,0.00
2019-03-20T00:55:24.491Z,0.00
2019-03-20T00:56:24.471Z,0.00
2019-03-20T00:57:24.832Z,0.00
2019-03-20T00:58:24.531Z,0.00
2019-03-20T00:59:24.614Z,0.00
2019-03-20T01:00:24.644Z,0.00
2019-03-20T01:01:24.677Z,0.00
2019-03-20T01:02:24.654Z,0.00
2019-03-20T01:03:24.688Z,0.00
2019-03-20T01:04:25.031Z,0.00
2019-03-20T01:05:24.748Z,0.00
2019-03-20T01:06:24.844Z,0.00
2019-03-20T01:07:24.807Z,0.00
2019-03-20T01:08:24.889Z,0.00
2019-03-20T01:09:24.912Z,0.00
2019-03-20T01:10:24.947Z,0.00
2019-03-20T01:11:25.233Z,0.00
2019-03-20T01:12:24.955Z,0.00
2019-03-20T01:13:25.008Z,0.00
2019-03-20T01:14:25.017Z,0.00
2019-03-20T01:15:25.098Z,0.00
2019-03-20T01:16:25.084Z,0.00
2019-03-20T01:17:25.104Z,0.00
2019-03-20T01:18:25.488Z,0.00
2019-03-20T01:19:25.164Z,0.00
2019-03-20T01:20:25.250Z,0.00
2019-03-20T01:21:25.275Z,0.00
2019-03-20T01:22:25.306Z,0.00
2019-03-20T01:23:25.341Z,0.00
2019-03-20T01:24:25.320Z,0.00
2019-03-20T01:25:25.699Z,0.00
2019-03-20T01:26:25.377Z,0.00
2019-03-20T01:27:25.406Z,0.00
2019-03-20T01:28:25.445Z,0.00
2019-03-20T01:29:25.463Z,0.00
2019-03-20T01:30:25.501Z,0.00
2019-03-20T01:31:25.826Z,0.00
2019-03-20T01:32:25.609Z,0.00
2019-03-20T01:33:25.594Z,0.00
2019-03-20T01:34:25.631Z,0.00
2019-03-20T01:35:25.700Z,0.00
2019-03-20T01:36:25.678Z,0.00
2019-03-20T01:37:26.011Z,0.00
2019-03-20T01:38:25.738Z,0.00
2019-03-20T01:39:25.771Z,0.00
2019-03-20T01:40:25.851Z,0.00
2019-03-20T01:41:25.878Z,0.00
2019-03-20T01:42:25.907Z,0.00
2019-03-20T01:43:26.193Z,0.00
2019-03-20T01:44:25.914Z,0.00
2019-03-20T01:45:26.103Z,0.00
2019-03-20T01:46:25.976Z,0.00
2019-03-20T01:47:26.021Z,0.00
2019-03-20T01:48:26.176Z,0.00
2019-03-20T01:49:26.133Z,0.00
2019-03-20T01:50:26.401Z,0.00
2019-03-20T01:51:26.183Z,0.00
2019-03-20T01:52:26.165Z,0.00
2019-03-20T01:53:26.244Z,0.00
2019-03-20T01:54:26.222Z,0.00
2019-03-20T01:55:26.297Z,0.00
2019-03-20T01:56:26.326Z,0.00
2019-03-20T01:57:26.612Z,0.00
2019-03-20T01:58:26.339Z,0.00
2019-03-20T01:59:26.367Z,0.00
2019-03-20T02:00:26.416Z,0.00
2019-03-20T02:01:26.475Z,0.00
2019-03-20T02:02:26.459Z,0.00
2019-03-20T02:03:26.493Z,0.00
2019-03-20T02:04:26.822Z,0.00
2019-03-20T02:05:35.114Z,0.00
2019-03-20T02:06:26.631Z,0.00
2019-03-20T02:07:26.610Z,0.00
2019-03-20T02:08:26.687Z,0.00
2019-03-20T02:09:26.665Z,0.00
2019-03-20T02:10:26.699Z,0.00
2019-03-20T02:11:27.030Z,0.00
2019-03-20T02:12:26.807Z,0.00
2019-03-20T02:13:26.837Z,0.00
2019-03-20T02:14:26.948Z,0.00
2019-03-20T02:16:27.008Z,0.00
2019-03-20T02:17:27.117Z,0.00
2019-03-20T02:18:27.237Z,0.00
2019-03-20T02:19:26.970Z,0.00
2019-03-20T02:20:26.999Z,0.00
2019-03-20T02:21:27.077Z,0.00
2019-03-20T02:22:27.245Z,0.00
2019-03-20T02:23:27.244Z,0.00
2019-03-20T02:24:27.169Z,0.00
2019-03-20T02:25:27.452Z,0.00
2019-03-20T02:26:27.278Z,0.00
2019-03-20T02:27:27.371Z,0.00
2019-03-20T02:28:27.240Z,0.00
2019-03-20T02:29:27.318Z,0.00
2019-03-20T02:30:27.294Z,0.00
2019-03-20T02:31:27.330Z,0.00
2019-03-20T02:32:27.655Z,0.00
2019-03-20T02:33:27.435Z,0.00
2019-03-20T02:34:27.470Z,0.00
2019-03-20T02:35:27.606Z,0.00
2019-03-20T02:36:27.526Z,0.00
2019-03-20T02:37:27.654Z,0.00
2019-03-20T02:38:27.546Z,0.00
2019-03-20T02:39:27.863Z,0.00
2019-03-20T02:40:27.750Z,0.00
2019-03-20T02:41:27.690Z,0.00
2019-03-20T02:42:27.822Z,0.00
2019-03-20T02:43:27.824Z,0.00
2019-03-20T02:44:27.798Z,0.00
2019-03-20T02:45:27.945Z,0.00
2019-03-20T02:46:28.129Z,0.00
2019-03-20T02:47:27.857Z,0.00
2019-03-20T02:48:27.886Z,0.00
2019-03-20T02:49:27.874Z,0.00
2019-03-20T02:50:27.950Z,0.00
2019-03-20T02:51:27.922Z,0.00
2019-03-20T02:52:27.953Z,0.00
2019-03-20T02:53:28.422Z,0.00
2019-03-20T02:54:28.014Z,0.00
2019-03-20T02:55:28.042Z,0.00
2019-03-20T02:56:28.123Z,0.00
2019-03-20T02:57:28.156Z,0.00
2019-03-20T02:58:28.197Z,0.00
2019-03-20T02:59:28.162Z,0.00
2019-03-20T03:00:28.553Z,0.00
2019-03-20T03:01:28.229Z,0.00
2019-03-20T03:02:28.361Z,0.00
2019-03-20T03:03:28.331Z,0.00
2019-03-20T03:04:28.365Z,0.00
2019-03-20T03:05:28.344Z,0.00
2019-03-20T03:06:28.370Z,0.00
2019-03-20T03:07:28.705Z,0.00
2019-03-20T03:08:29.186Z,0.00
2019-03-20T03:09:28.521Z,0.00
2019-03-20T03:10:28.542Z,0.00
2019-03-20T03:11:28.525Z,0.00
2019-03-20T03:12:28.557Z,0.00
2019-03-20T03:13:28.840Z,0.00
2019-03-20T03:14:29.139Z,0.00
2019-03-20T03:15:28.852Z,0.00
2019-03-20T03:16:28.831Z,0.00
2019-03-20T03:17:28.863Z,0.00
2019-03-20T03:18:28.734Z,0.00
2019-03-20T03:19:28.761Z,0.00
2019-03-20T03:20:29.124Z,0.00
2019-03-20T03:21:28.867Z,0.00
2019-03-20T03:22:28.857Z,0.00
2019-03-20T03:23:29.047Z,0.00
2019-03-20T03:24:29.004Z,0.00
2019-03-20T03:25:28.945Z,0.00
2019-03-20T03:26:29.428Z,0.00
2019-03-20T03:27:29.060Z,0.00
2019-03-20T03:28:29.027Z,0.00
2019-03-20T03:29:29.224Z,0.00
2019-03-20T03:30:29.199Z,0.00
2019-03-20T03:31:29.172Z,0.00
2019-03-20T03:32:29.578Z,0.00
2019-03-20T03:33:29.244Z,0.00
2019-03-20T03:34:29.213Z,0.00
2019-03-20T03:35:29.237Z,0.00
2019-03-20T03:36:29.321Z,0.00
2019-03-20T03:37:29.298Z,0.00
2019-03-20T03:38:29.380Z,0.00
2019-03-20T03:39:29.654Z,0.00
2019-03-20T03:40:29.440Z,0.00
2019-03-20T03:41:29.477Z,0.00
2019-03-20T03:42:29.644Z,0.00
2019-03-20T03:43:29.527Z,0.00
2019-03-20T03:44:29.686Z,0.00
2019-03-20T03:45:29.656Z,0.00
2019-03-20T03:47:29.901Z,0.00
2019-03-20T03:48:29.678Z,0.00
2019-03-20T03:49:29.713Z,0.00
2019-03-20T03:50:29.901Z,0.00
2019-03-20T03:51:29.775Z,0.00
2019-03-20T03:52:29.810Z,0.00
2019-03-20T03:53:30.075Z,0.00
2019-03-20T03:54:29.856Z,0.00
2019-03-20T03:55:29.886Z,0.00
2019-03-20T03:56:29.915Z,0.00
2019-03-20T03:57:29.898Z,0.00
2019-03-20T03:58:32.776Z,0.00
2019-03-20T03:59:30.107Z,0.00
2019-03-20T04:00:30.299Z,0.00
2019-03-20T04:01:30.160Z,0.00
2019-03-20T04:02:30.193Z,0.00
2019-03-20T04:03:30.267Z,0.00
2019-03-20T04:04:30.104Z,0.00
2019-03-20T04:05:30.188Z,0.00
2019-03-20T04:06:35.379Z,0.00
2019-03-20T04:07:30.496Z,0.00
2019-03-20T04:08:30.276Z,0.00
2019-03-20T04:09:30.250Z,0.00
2019-03-20T04:10:30.435Z,0.00
2019-03-20T04:11:30.317Z,0.00
2019-03-20T04:12:30.336Z,0.00
2019-03-20T04:13:30.428Z,0.00
2019-03-20T04:14:30.710Z,0.00
2019-03-20T04:15:30.440Z,0.00
2019-03-20T04:16:30.610Z,0.00
2019-03-20T04:17:30.545Z,0.00
2019-03-20T04:18:30.525Z,0.00
2019-03-20T04:19:30.544Z,0.00
2019-03-20T04:20:30.730Z,0.00
2019-03-20T04:21:30.904Z,0.00
2019-03-20T04:22:30.691Z,0.00
2019-03-20T04:23:30.663Z,0.00
2019-03-20T04:24:30.754Z,0.00
2019-03-20T04:25:30.732Z,0.00
2019-03-20T04:26:30.927Z,0.00
2019-03-20T04:27:30.832Z,0.00
2019-03-20T04:28:31.164Z,0.00
2019-03-20T04:29:30.897Z,0.00
2019-03-20T04:30:30.922Z,0.00
2019-03-20T04:31:30.902Z,0.00
2019-03-20T04:32:31.090Z,0.00
2019-03-20T04:33:31.014Z,0.00
2019-03-20T04:34:31.040Z,0.00
2019-03-20T04:35:31.326Z,0.00
2019-03-20T04:36:31.104Z,0.00
2019-03-20T04:37:31.136Z,0.00
2019-03-20T04:38:31.110Z,0.00
2019-03-20T04:39:31.271Z,0.00
2019-03-20T04:40:31.254Z,0.00
2019-03-20T04:41:31.273Z,0.00
2019-03-20T04:42:31.681Z,0.00
2019-03-20T04:43:31.381Z,0.00
2019-03-20T04:44:31.373Z,0.00
2019-03-20T04:45:31.320Z,0.00
2019-03-20T04:46:31.402Z,0.00
2019-03-20T04:47:31.374Z,0.00
2019-03-20T04:48:31.464Z,0.00
2019-03-20T04:49:31.734Z,0.00
2019-03-20T04:51:31.545Z,0.00
2019-03-20T04:52:31.678Z,0.00
2019-03-20T04:55:31.613Z,0.00
2019-03-20T04:56:32.007Z,0.00
2019-03-20T04:57:31.726Z,0.00
2019-03-20T04:58:31.707Z,0.00
2019-03-20T04:59:31.732Z,0.00
2019-03-20T05:00:31.769Z,0.00
2019-03-20T05:01:31.791Z,0.00
2019-03-20T05:02:31.977Z,0.00
2019-03-20T05:03:32.207Z,0.00
2019-03-20T05:04:31.934Z,0.00
2019-03-20T05:05:31.910Z,0.00
2019-03-20T05:06:31.951Z,0.00
2019-03-20T05:07:31.973Z,0.00
2019-03-20T05:08:32.001Z,0.00
2019-03-20T05:09:32.083Z,0.00
2019-03-20T05:11:32.396Z,0.00
2019-03-20T05:12:32.179Z,0.00
2019-03-20T05:13:32.146Z,4.00
2019-03-20T05:14:32.230Z,4.00
2019-03-20T05:15:32.261Z,0.00
2019-03-20T05:16:32.294Z,4.00
2019-03-20T05:17:32.271Z,4.00
2019-03-20T05:19:32.625Z,8.00
2019-03-20T05:20:32.424Z,8.00
2019-03-20T05:21:32.433Z,8.00
2019-03-20T05:22:32.418Z,8.00
2019-03-20T05:23:32.448Z,12.00
2019-03-20T05:24:32.477Z,16.00
2019-03-20T05:25:32.556Z,16.00
2019-03-20T05:26:32.861Z,20.00
2019-03-20T05:27:32.616Z,20.00
2019-03-20T05:28:32.597Z,28.00
2019-03-20T05:29:32.677Z,28.00
2019-03-20T05:30:32.652Z,32.00
2019-03-20T05:31:32.735Z,36.00
2019-03-20T05:32:32.761Z,40.00
2019-03-20T05:33:33.040Z,44.00
2019-03-20T05:34:32.869Z,48.00
2019-03-20T05:35:32.902Z,56.00
2019-03-20T05:36:32.974Z,60.00
2019-03-20T05:37:32.923Z,68.00
2019-03-20T05:38:32.888Z,72.00
2019-03-20T05:39:33.004Z,80.00
2019-03-20T05:40:33.299Z,88.00
2019-03-20T05:41:32.981Z,92.00
2019-03-20T05:42:33.083Z,100.00
2019-03-20T05:43:33.128Z,104.00
2019-03-20T05:44:33.168Z,112.00
2019-03-20T05:45:33.199Z,120.00
2019-03-20T05:46:33.180Z,132.00
2019-03-20T05:47:33.457Z,136.00
2019-03-20T05:48:33.183Z,144.00
2019-03-20T05:49:33.217Z,152.00
2019-03-20T05:50:33.297Z,164.00
2019-03-20T05:51:33.272Z,172.00
2019-03-20T05:52:33.354Z,188.00
2019-03-20T05:53:33.395Z,200.00
2019-03-20T05:54:33.392Z,208.00
2019-03-20T05:55:33.401Z,220.00
2019-03-20T05:56:33.473Z,228.00
2019-03-20T05:57:33.506Z,236.00
2019-03-20T05:58:33.483Z,240.00
2019-03-20T05:59:33.514Z,252.00
2019-03-20T06:00:33.902Z,264.00
2019-03-20T06:01:33.571Z,280.00
2019-03-20T06:02:33.599Z,288.00
2019-03-20T06:03:33.637Z,300.00
2019-03-20T06:04:33.748Z,312.00
2019-03-20T06:05:33.768Z,328.00
2019-03-20T06:06:34.106Z,340.00
2019-03-20T06:07:33.802Z,348.00
2019-03-20T06:08:33.832Z,364.00
2019-03-20T06:09:33.818Z,372.00
2019-03-20T06:10:33.892Z,384.00
2019-03-20T06:11:33.865Z,392.00
2019-03-20T06:12:34.203Z,404.00
2019-03-20T06:13:33.933Z,416.00
2019-03-20T06:14:33.959Z,424.00
2019-03-20T06:15:34.047Z,436.00
2019-03-20T06:16:34.064Z,444.00
2019-03-20T06:17:34.063Z,444.00
2019-03-20T06:18:34.079Z,456.00
2019-03-20T06:19:34.405Z,444.00
2019-03-20T06:20:34.193Z,448.00
2019-03-20T06:21:34.212Z,460.00
2019-03-20T06:22:34.246Z,488.00
2019-03-20T06:23:34.229Z,512.00
2019-03-20T06:24:34.310Z,532.00
2019-03-20T06:25:34.333Z,544.00
2019-03-20T06:26:34.617Z,552.00
2019-03-20T06:27:34.344Z,560.00
2019-03-20T06:28:34.421Z,556.00
2019-03-20T06:29:34.450Z,548.00
2019-03-20T06:30:34.435Z,536.00
2019-03-20T06:31:34.515Z,552.00
2019-03-20T06:32:34.547Z,572.00
2019-03-20T06:33:34.900Z,548.00
2019-03-20T06:34:34.603Z,544.00
2019-03-20T06:35:34.633Z,564.00
2019-03-20T06:36:34.667Z,548.00
2019-03-20T06:37:34.642Z,520.00
2019-03-20T06:38:34.684Z,512.00
2019-03-20T06:39:34.754Z,504.00
2019-03-20T06:40:35.077Z,496.00
2019-03-20T06:41:34.816Z,524.00
2019-03-20T06:42:34.789Z,572.00
2019-03-20T06:43:34.822Z,620.00
2019-03-20T06:44:34.846Z,632.00
2019-03-20T06:45:34.885Z,644.00
2019-03-20T06:47:34.991Z,680.00
2019-03-20T06:48:35.270Z,684.00
2019-03-20T06:49:34.998Z,696.00
2019-03-20T06:50:35.032Z,688.00
2019-03-20T06:51:35.110Z,736.00
2019-03-20T06:52:35.093Z,764.00
2019-03-20T06:53:35.207Z,756.00
2019-03-20T06:54:35.209Z,756.00
2019-03-20T06:55:35.737Z,760.00
2019-03-20T06:56:35.211Z,768.00
2019-03-20T06:57:35.345Z,784.00
2019-03-20T06:58:35.314Z,808.00
2019-03-20T06:59:35.299Z,816.00
2019-03-20T07:00:35.408Z,844.00
2019-03-20T07:01:35.465Z,860.00
2019-03-20T07:02:35.744Z,848.00
2019-03-20T07:03:35.422Z,872.00
2019-03-20T07:04:35.498Z,920.00
2019-03-20T07:05:35.552Z,928.00
2019-03-20T07:06:35.543Z,936.00
2019-03-20T07:07:43.469Z,936.00
2019-03-20T07:08:35.614Z,936.00
2019-03-20T07:09:35.655Z,928.00
2019-03-20T07:10:35.710Z,904.00
2019-03-20T07:11:35.656Z,820.00
2019-03-20T07:12:35.741Z,736.00
2019-03-20T07:13:35.766Z,728.00
2019-03-20T07:14:35.803Z,812.00
2019-03-20T07:15:36.079Z,848.00
2019-03-20T07:16:35.856Z,844.00
2019-03-20T07:17:35.832Z,856.00
2019-03-20T07:18:35.862Z,912.00
2019-03-20T07:19:35.948Z,908.00
2019-03-20T07:21:36.005Z,968.00
2019-03-20T07:22:36.283Z,984.00
2019-03-20T07:23:36.015Z,988.00
2019-03-20T07:24:36.041Z,1024.00
2019-03-20T07:25:36.071Z,1052.00
2019-03-20T07:26:36.158Z,1060.00
2019-03-20T07:27:36.181Z,1044.00
2019-03-20T07:28:36.211Z,1028.00
2019-03-20T07:29:36.495Z,1048.00
2019-03-20T07:30:36.231Z,1044.00
2019-03-20T07:31:36.326Z,1020.00
2019-03-20T07:32:36.394Z,1008.00
2019-03-20T07:33:36.367Z,976.00
2019-03-20T07:34:36.352Z,1036.00
2019-03-20T07:35:36.381Z,1068.00
2019-03-20T07:36:36.460Z,1104.00
2019-03-20T07:37:36.492Z,1092.00
2019-03-20T07:38:36.484Z,1056.00
2019-03-20T07:40:36.531Z,1008.00
2019-03-20T07:41:36.601Z,1000.00
2019-03-20T07:42:36.975Z,1008.00
2019-03-20T07:43:36.681Z,1032.00
2019-03-20T07:44:36.697Z,1076.00
2019-03-20T07:45:36.677Z,1120.00
2019-03-20T07:46:36.705Z,1132.00
2019-03-20T07:47:36.890Z,1108.00
2019-03-20T07:48:37.111Z,1112.00
2019-03-20T07:49:36.797Z,1160.00
2019-03-20T07:50:36.829Z,1172.00
2019-03-20T07:51:36.855Z,1156.00
2019-03-20T07:52:36.951Z,1168.00
2019-03-20T07:54:36.997Z,1176.00
2019-03-20T07:55:37.327Z,1184.00
2019-03-20T07:56:37.057Z,1204.00
2019-03-20T07:57:37.081Z,1248.00
2019-03-20T07:58:37.078Z,1296.00
2019-03-20T07:59:37.144Z,1356.00
2019-03-20T08:00:37.195Z,1416.00
2019-03-20T08:01:37.159Z,1416.00
2019-03-20T08:02:37.231Z,1452.00
2019-03-20T08:03:37.218Z,1464.00
2019-03-20T08:04:37.243Z,1484.00
2019-03-20T08:05:37.331Z,1488.00
2019-03-20T08:06:37.385Z,1480.00
2019-03-20T08:07:37.701Z,1532.00
2019-03-20T08:08:37.424Z,1548.00
2019-03-20T08:09:37.528Z,1556.00
2019-03-20T08:10:37.476Z,1544.00
2019-03-20T08:11:37.508Z,1520.00
2019-03-20T08:12:37.491Z,1532.00
2019-03-20T08:13:37.520Z,1472.00
2019-03-20T08:14:37.902Z,1608.00
2019-03-20T08:15:37.583Z,1664.00
2019-03-20T08:16:37.623Z,1712.00
2019-03-20T08:17:37.685Z,1764.00
2019-03-20T08:18:37.668Z,1776.00
2019-03-20T08:19:37.745Z,1784.00
2019-03-20T08:20:37.780Z,1848.00
2019-03-20T08:21:37.759Z,1872.00
2019-03-20T08:22:37.795Z,1872.00
2019-03-20T08:23:37.874Z,1864.00
2019-03-20T08:24:37.902Z,1828.00
2019-03-20T08:25:37.894Z,1812.00
2019-03-20T08:27:37.941Z,1848.00
2019-03-20T08:28:38.027Z,1880.00
2019-03-20T08:29:38.101Z,1896.00
2019-03-20T08:30:38.111Z,1908.00
2019-03-20T08:31:38.124Z,1952.00
2019-03-20T08:32:38.160Z,1940.00
2019-03-20T08:33:38.119Z,1860.00
2019-03-20T08:35:38.514Z,1968.00
2019-03-20T08:36:38.265Z,2032.00
2019-03-20T08:37:38.305Z,2116.00
2019-03-20T08:38:38.291Z,2132.00
2019-03-20T08:39:38.314Z,2136.00
2019-03-20T08:41:38.421Z,2228.00
2019-03-20T08:42:38.705Z,2236.00
2019-03-20T08:43:38.432Z,2264.00
2019-03-20T08:44:38.506Z,2296.00
2019-03-20T08:46:38.519Z,2380.00
2019-03-20T08:47:38.553Z,2388.00
2019-03-20T08:48:38.640Z,2340.00
2019-03-20T08:49:38.614Z,2280.00
2019-03-20T08:50:38.641Z,2224.00
2019-03-20T08:51:38.732Z,2228.00
2019-03-20T08:52:38.752Z,2200.00
2019-03-20T08:53:38.781Z,2304.00
2019-03-20T08:54:39.116Z,2400.00
2019-03-20T08:55:38.842Z,2484.00
2019-03-20T08:56:38.873Z,2476.00
2019-03-20T08:57:38.852Z,2440.00
2019-03-20T08:58:38.886Z,2368.00
2019-03-20T08:59:38.924Z,2392.00
2019-03-20T09:00:39.297Z,2372.00
2019-03-20T09:01:39.027Z,2432.00
2019-03-20T09:02:39.011Z,2508.00
2019-03-20T09:04:39.160Z,2556.00
2019-03-20T09:05:39.102Z,2512.00
2019-03-20T09:06:39.492Z,2556.00
2019-03-20T09:08:39.364Z,2592.00
2019-03-20T09:09:39.274Z,2680.00
2019-03-20T09:10:39.272Z,2672.00
2019-03-20T09:11:39.278Z,2776.00
2019-03-20T09:12:39.316Z,2832.00
2019-03-20T09:13:39.502Z,2848.00
2019-03-20T09:14:39.426Z,2800.00
2019-03-20T09:15:39.404Z,2764.00
2019-03-20T09:16:39.489Z,2748.00
2019-03-20T09:17:39.464Z,2748.00
2019-03-20T09:18:39.499Z,2596.00
2019-03-20T09:19:39.825Z,2588.00
2019-03-20T09:20:39.558Z,2704.00
2019-03-20T09:21:39.591Z,2796.00
2019-03-20T09:22:39.629Z,2892.00
2019-03-20T09:23:40.849Z,2880.00
2019-03-20T09:24:39.732Z,2848.00
2019-03-20T09:25:39.763Z,2896.00
2019-03-20T09:26:40.051Z,2880.00
2019-03-20T09:27:39.781Z,2940.00
2019-03-20T09:28:39.854Z,2948.00
2019-03-20T09:29:41.211Z,2868.00
2019-03-20T09:30:39.915Z,2880.00
2019-03-20T09:31:39.899Z,2944.00
2019-03-20T09:32:39.977Z,2948.00
2019-03-20T09:33:40.483Z,3036.00
2019-03-20T09:34:40.407Z,3044.00
2019-03-20T09:35:40.092Z,2988.00
2019-03-20T09:36:43.458Z,2924.00
2019-03-20T09:37:50.881Z,2940.00
2019-03-20T09:38:43.676Z,2988.00
2019-03-20T09:39:40.147Z,3000.00
2019-03-20T09:40:40.479Z,3032.00
2019-03-20T09:41:40.209Z,3024.00
2019-03-20T09:42:40.242Z,3008.00
2019-03-20T09:43:40.322Z,3076.00
2019-03-20T09:44:40.313Z,3128.00
2019-03-20T09:45:40.333Z,3168.00
2019-03-20T09:46:40.536Z,3212.00
2019-03-20T09:47:40.392Z,3172.00
2019-03-20T09:48:40.473Z,3112.00
2019-03-20T09:49:40.510Z,3144.00
2019-03-20T09:50:40.537Z,3220.00
2019-03-20T09:51:40.516Z,3304.00
2019-03-20T09:52:40.553Z,3344.00
2019-03-20T09:53:40.581Z,3348.00
2019-03-20T09:54:40.664Z,3396.00
2019-03-20T09:56:40.788Z,3520.00
2019-03-20T09:57:40.769Z,3568.00
2019-03-20T09:58:40.753Z,3656.00
2019-03-20T09:59:40.771Z,3752.00
2019-03-20T10:00:40.803Z,3796.00
2019-03-20T10:01:40.836Z,3816.00
2019-03-20T10:02:40.859Z,3804.00
2019-03-20T10:03:40.922Z,3704.00
2019-03-20T10:04:40.972Z,3592.00
2019-03-20T10:05:41.306Z,3608.00
2019-03-20T10:06:41.001Z,3564.00
2019-03-20T10:07:41.021Z,3568.00
2019-03-20T10:09:41.135Z,3508.00
2019-03-20T10:10:41.179Z,3560.00
2019-03-20T10:11:41.444Z,3556.00
2019-03-20T10:12:41.181Z,3524.00
2019-03-20T10:13:41.211Z,3456.00
2019-03-20T10:14:41.285Z,3348.00
2019-03-20T10:15:41.271Z,3224.00
2019-03-20T10:16:41.356Z,3128.00
2019-03-20T10:17:41.343Z,3084.00
2019-03-20T10:18:42.000Z,3072.00
2019-03-20T10:19:41.447Z,3052.00
2019-03-20T10:21:41.510Z,3132.00
2019-03-20T10:23:41.517Z,3388.00
2019-03-20T10:24:41.598Z,3520.00
2019-03-20T10:26:41.967Z,3852.00
2019-03-20T10:27:41.647Z,4100.00
2019-03-20T10:28:41.724Z,4328.00
2019-03-20T10:29:41.760Z,4476.00
2019-03-20T10:31:41.769Z,4620.00
2019-03-20T10:32:41.800Z,4624.00
2019-03-20T10:33:42.719Z,4568.00
2019-03-20T10:34:42.204Z,4516.00
2019-03-20T10:35:49.952Z,4468.00
2019-03-20T10:36:42.278Z,4392.00
2019-03-20T10:38:42.233Z,4228.00
2019-03-20T10:39:42.020Z,4052.00
2019-03-20T10:40:42.363Z,4032.00
2019-03-20T10:41:42.097Z,3976.00
2019-03-20T10:42:42.170Z,3836.00
2019-03-20T10:43:42.149Z,3676.00
2019-03-20T10:44:42.235Z,3548.00
2019-03-20T10:45:42.261Z,3464.00
2019-03-20T10:46:42.248Z,3424.00
2019-03-20T10:47:42.588Z,3408.00
2019-03-20T10:48:42.363Z,3408.00
2019-03-20T10:49:42.463Z,3420.00
2019-03-20T10:50:42.425Z,3456.00
2019-03-20T10:51:42.402Z,3496.00
2019-03-20T10:52:42.435Z,3544.00
2019-03-20T10:53:42.523Z,3604.00
2019-03-20T10:54:42.797Z,3660.00
2019-03-20T10:55:42.527Z,3724.00
2019-03-20T10:56:42.614Z,3768.00
2019-03-20T10:57:42.693Z,3800.00
2019-03-20T10:58:42.678Z,3820.00
2019-03-20T10:59:42.654Z,3832.00
2019-03-20T11:00:42.765Z,3828.00
2019-03-20T11:01:43.088Z,3924.00
2019-03-20T11:02:42.782Z,4036.00
2019-03-20T11:03:42.842Z,4120.00
2019-03-20T11:04:42.881Z,4128.00
2019-03-20T11:05:42.852Z,4144.00
2019-03-20T11:06:42.931Z,4112.00
2019-03-20T11:07:42.933Z,4084.00
2019-03-20T11:08:43.247Z,4060.00
2019-03-20T11:09:43.024Z,4056.00
2019-03-20T11:10:43.012Z,4068.00
2019-03-20T11:11:43.055Z,4092.00
2019-03-20T11:12:43.127Z,4108.00
2019-03-20T11:13:43.161Z,4092.00
2019-03-20T11:14:43.139Z,4048.00
2019-03-20T11:15:43.470Z,3988.00
2019-03-20T11:16:43.209Z,3980.00
2019-03-20T11:17:43.303Z,3972.00
2019-03-20T11:18:43.326Z,3948.00
2019-03-20T11:19:43.345Z,3924.00
2019-03-20T11:20:43.380Z,3884.00
2019-03-20T11:21:43.361Z,3856.00
2019-03-20T11:22:43.694Z,3808.00
2019-03-20T11:23:43.432Z,3772.00
2019-03-20T11:24:43.471Z,3736.00
2019-03-20T11:25:43.535Z,3720.00
2019-03-20T11:26:43.522Z,3704.00
2019-03-20T11:27:43.600Z,3720.00
2019-03-20T11:28:43.643Z,3784.00
2019-03-20T11:29:43.920Z,3864.00
2019-03-20T11:30:43.703Z,3984.00
2019-03-20T11:31:43.734Z,4056.00
2019-03-20T11:32:43.715Z,4064.00
2019-03-20T11:33:43.752Z,4036.00
2019-03-20T11:34:43.782Z,4036.00
2019-03-20T11:35:43.857Z,4036.00
2019-03-20T11:36:44.140Z,4048.00
2019-03-20T11:37:43.881Z,4112.00
2019-03-20T11:38:43.906Z,4248.00
2019-03-20T11:39:43.941Z,4368.00
2019-03-20T11:40:43.972Z,4384.00
2019-03-20T11:41:44.062Z,4384.00
2019-03-20T11:42:44.040Z,4352.00
2019-03-20T11:43:44.365Z,4276.00
2019-03-20T11:44:44.107Z,4204.00
2019-03-20T11:45:44.186Z,4184.00
2019-03-20T11:46:44.175Z,4068.00
2019-03-20T11:47:44.199Z,3976.00
2019-03-20T11:48:44.235Z,3924.00
2019-03-20T11:49:44.315Z,3784.00
2019-03-20T11:50:44.645Z,3868.00
2019-03-20T11:51:44.330Z,3832.00
2019-03-20T11:52:44.417Z,3824.00
2019-03-20T11:53:44.396Z,3868.00
2019-03-20T11:54:44.473Z,3920.00
2019-03-20T11:55:44.513Z,3896.00
2019-03-20T11:56:44.493Z,3916.00
2019-03-20T11:57:44.531Z,4020.00
2019-03-20T11:58:44.603Z,4064.00
2019-03-20T11:59:44.605Z,4116.00
2019-03-20T12:00:44.681Z,4196.00
2019-03-20T12:01:44.746Z,4328.00
2019-03-20T12:02:44.683Z,4440.00
2019-03-20T12:03:44.764Z,4528.00
2019-03-20T12:04:44.751Z,4592.00
2019-03-20T12:05:44.831Z,4648.00
2019-03-20T12:06:44.812Z,4772.00
2019-03-20T12:07:44.896Z,4876.00
2019-03-20T12:08:44.926Z,5152.00
2019-03-20T12:09:44.988Z,5420.00
2019-03-20T12:10:44.941Z,5528.00
2019-03-20T12:11:46.083Z,5560.00
2019-03-20T12:12:45.063Z,5692.00
2019-03-20T12:13:45.100Z,5996.00
2019-03-20T12:14:45.074Z,6088.00
2019-03-20T12:15:45.109Z,6136.00
2019-03-20T12:16:45.188Z,6192.00
2019-03-20T12:17:45.174Z,6372.00
2019-03-20T12:18:45.257Z,6652.00
2019-03-20T12:19:45.307Z,6924.00
2019-03-20T12:20:45.269Z,7076.00
2019-03-20T12:21:45.613Z,6968.00
2019-03-20T12:22:45.337Z,6716.00
2019-03-20T12:23:45.422Z,6396.00
2019-03-20T12:24:45.450Z,6224.00
2019-03-20T12:25:45.481Z,6276.00
2019-03-20T12:26:45.462Z,6328.00
2019-03-20T12:27:45.497Z,6192.00
2019-03-20T12:28:45.887Z,5856.00
2019-03-20T12:29:45.620Z,5508.00
2019-03-20T12:30:45.604Z,5252.00
2019-03-20T12:31:45.634Z,5304.00
2019-03-20T12:32:45.666Z,5436.00
2019-03-20T12:33:45.756Z,5644.00
2019-03-20T12:34:45.732Z,5944.00
2019-03-20T12:35:46.115Z,6132.00
2019-03-20T12:36:45.843Z,6156.00
2019-03-20T12:37:45.831Z,6376.00
2019-03-20T12:38:45.870Z,6636.00
2019-03-20T12:39:53.042Z,6576.00
2019-03-20T12:40:45.995Z,6372.00
2019-03-20T12:41:46.023Z,6300.00
2019-03-20T12:42:46.313Z,6320.00
2019-03-20T12:43:46.086Z,6424.00
2019-03-20T12:44:46.115Z,6264.00
2019-03-20T12:45:46.143Z,5932.00
2019-03-20T12:46:46.128Z,5552.00
2019-03-20T12:47:46.166Z,5212.00
2019-03-20T12:48:46.247Z,4988.00
2019-03-20T12:49:46.221Z,5168.00
2019-03-20T12:50:46.307Z,5352.00
2019-03-20T12:51:46.335Z,5544.00
2019-03-20T12:52:46.338Z,5756.00
2019-03-20T12:53:46.408Z,5888.00
2019-03-20T12:54:46.396Z,6024.00
2019-03-20T12:55:46.769Z,6148.00
2019-03-20T12:56:46.558Z,6280.00
2019-03-20T12:57:46.507Z,6448.00
2019-03-20T12:58:46.526Z,6516.00
2019-03-20T12:59:46.601Z,6364.00
2019-03-20T13:01:27.109Z,5840.00
2019-03-20T13:02:27.144Z,5544.00
2019-03-20T13:03:27.131Z,5196.00